| time (UTC) | temp C | wind direction | speed KPH | gust KPH | rain 1hr cm | rain 24hr cm | rain mn cm | humidity % | barometer mb |
| 20260504202016 | 25 | 313 | 6.4 | 11.3 | 0.00 | 0.00 | 0.00 | 23 | 944.0 |
| 20260504201455 | 25 | 135 | 4.8 | 8.0 | 0.00 | 0.00 | 0.00 | 23 | 944.0 |
| 20260504201254 | 25 | 63 | 0.0 | 11.3 | 0.00 | 0.00 | 0.00 | 24 | 944.0 |
| 20260504201045 | 25 | 55 | 0.0 | 11.3 | 0.00 | 0.00 | 0.00 | 23 | 944.0 |
| 20260504200844 | 25 | 58 | 6.4 | 11.3 | 0.00 | 0.00 | 0.00 | 22 | 944.0 |
| 20260504200634 | 25 | 319 | 0.0 | 9.7 | 0.00 | 0.00 | 0.00 | 23 | 944.0 |
| 20260504195755 | 25 | 23 | 3.2 | 8.0 | 0.00 | 0.00 | 0.00 | 22 | 944.0 |
| 20260504195233 | 26 | 239 | 3.2 | 6.4 | 0.00 | 0.00 | 0.00 | 22 | 945.0 |
| 20260504195029 | 25 | 56 | 0.0 | 0.0 | 0.00 | 0.00 | 0.00 | 24 | 945.0 |
| 20260504194819 | 25 | 56 | 4.8 | 6.4 | 0.00 | 0.00 | 0.00 | 24 | 945.0 |
| 20260504194613 | 25 | 51 | 0.0 | 6.4 | 0.00 | 0.00 | 0.00 | 23 | 945.0 |
| 20260504194413 | 25 | 55 | 0.0 | 0.0 | 0.00 | 0.00 | 0.00 | 23 | 945.0 |
| 20260504194203 | 25 | 54 | 0.0 | 0.0 | 0.00 | 0.00 | 0.00 | 24 | 945.0 |
| 20260504193955 | 25 | 53 | 4.8 | 6.4 | 0.00 | 0.00 | 0.00 | 24 | 945.0 |
| 20260504193749 | 25 | 326 | 0.0 | 4.8 | 0.00 | 0.00 | 0.00 | 23 | 945.0 |
| 20260504193543 | 24 | 288 | 0.0 | 6.4 | 0.00 | 0.00 | 0.00 | 23 | 945.0 |
| 20260504192331 | 23 | 317 | 0.0 | 6.4 | 0.00 | 0.00 | 0.00 | 25 | 945.0 |
| 20260504191813 | 23 | 89 | 4.8 | 6.4 | 0.00 | 0.00 | 0.00 | 26 | 945.0 |
| 20260504191605 | 23 | 51 | 0.0 | 9.7 | 0.00 | 0.00 | 0.00 | 27 | 945.0 |
| 20260504191406 | 23 | 51 | 4.8 | 9.7 | 0.00 | 0.00 | 0.00 | 24 | 945.0 |
| 20260504191204 | 23 | 37 | 0.0 | 9.7 | 0.00 | 0.00 | 0.00 | 24 | 945.0 |
| 20260504190954 | 23 | 27 | 1.6 | 9.7 | 0.00 | 0.00 | 0.00 | 25 | 945.0 |
| 20260504190751 | 23 | 64 | 4.8 | 6.4 | 0.00 | 0.00 | 0.00 | 26 | 945.0 |
| 20260504190551 | 24 | 40 | 3.2 | 4.8 | 0.00 | 0.00 | 0.00 | 24 | 945.0 |
| 20260504190345 | 24 | 144 | 0.0 | 0.0 | 0.00 | 0.00 | 0.00 | 24 | 945.0 |
| 20260504185817 | 25 | 56 | 1.6 | 4.8 | 0.00 | 0.00 | 0.00 | 26 | 945.0 |
| 20260504185610 | 24 | 70 | 0.0 | 0.0 | 0.00 | 0.00 | 0.00 | 28 | 945.0 |
| 20260504185408 | 23 | 11 | 0.0 | 0.0 | 0.00 | 0.00 | 0.00 | 31 | 945.0 |
| 20260504185203 | 23 | 11 | 1.6 | 4.8 | 0.00 | 0.00 | 0.00 | 27 | 945.0 |
| 20260504184956 | 23 | 10 | 0.0 | 4.8 | 0.00 | 0.00 | 0.00 | 29 | 945.0 |
| 20260504184751 | 23 | 11 | 0.0 | 4.8 | 0.00 | 0.00 | 0.00 | 28 | 945.0 |
| 20260504184547 | 23 | 326 | 0.0 | 0.0 | 0.00 | 0.00 | 0.00 | 29 | 945.0 |
| 20260504184345 | 22 | 325 | 0.0 | 0.0 | 0.00 | 0.00 | 0.00 | 30 | 945.0 |
| 20260504184145 | 22 | 325 | 0.0 | 0.0 | 0.00 | 0.00 | 0.00 | 30 | 945.0 |
| 20260504183937 | 22 | 321 | 0.0 | 6.4 | 0.00 | 0.00 | 0.00 | 26 | 945.0 |
| 20260504183735 | 22 | 319 | 0.0 | 6.4 | 0.00 | 0.00 | 0.00 | 26 | 945.0 |
| 20260504183528 | 22 | 27 | 0.0 | 6.4 | 0.00 | 0.00 | 0.00 | 27 | 945.0 |
| 20260504183317 | 23 | 27 | 1.6 | 6.4 | 0.00 | 0.00 | 0.00 | 29 | 945.0 |
| 20260504183114 | 23 | 71 | 1.6 | 6.4 | 0.00 | 0.00 | 0.00 | 31 | 945.0 |
| 20260504182552 | 22 | 135 | 0.0 | 0.0 | 0.00 | 0.00 | 0.00 | 30 | 945.0 |
| 20260504182348 | 22 | 136 | 0.0 | 0.0 | 0.00 | 0.00 | 0.00 | 27 | 945.0 |
| 20260504182143 | 21 | 137 | 3.2 | 4.8 | 0.00 | 0.00 | 0.00 | 31 | 945.0 |
| 20260504181621 | 21 | 263 | 3.2 | 4.8 | 0.00 | 0.00 | 0.00 | 27 | 945.0 |
| 20260504181412 | 21 | 10 | 0.0 | 3.2 | 0.00 | 0.00 | 0.00 | 28 | 945.0 |
| 20260504181209 | 21 | 51 | 1.6 | 9.7 | 0.00 | 0.00 | 0.00 | 29 | 945.0 |
| 20260504181010 | 21 | 22 | 1.6 | 9.7 | 0.00 | 0.00 | 0.00 | 29 | 945.0 |
| 20260504180802 | 21 | 265 | 0.0 | 9.7 | 0.00 | 0.00 | 0.00 | 29 | 945.0 |
| 20260504180600 | 21 | 262 | 1.6 | 9.7 | 0.00 | 0.00 | 0.00 | 28 | 945.0 |
| 20260504180035 | 21 | 17 | 0.0 | 6.4 | 0.00 | 0.00 | 0.00 | 29 | 945.0 |
| 20260504175835 | 21 | 326 | 3.2 | 6.4 | 0.00 | 0.00 | 0.00 | 28 | 945.0 |
| 20260504175631 | 21 | 286 | 0.0 | 3.2 | 0.00 | 0.00 | 0.00 | 30 | 945.0 |
| 20260504175426 | 21 | 241 | 1.6 | 4.8 | 0.00 | 0.00 | 0.00 | 28 | 945.0 |
| 20260504174855 | 21 | 46 | 3.2 | 4.8 | 0.00 | 0.00 | 0.00 | 29 | 945.0 |
| 20260504174649 | 21 | 314 | 0.0 | 6.4 | 0.00 | 0.00 | 0.00 | 29 | 945.0 |
| 20260504174446 | 21 | 314 | 0.0 | 6.4 | 0.00 | 0.00 | 0.00 | 32 | 945.0 |
| 20260504174240 | 21 | 23 | 1.6 | 6.4 | 0.00 | 0.00 | 0.00 | 32 | 945.0 |
| 20260504174034 | 20 | 57 | 4.8 | 6.4 | 0.00 | 0.00 | 0.00 | 31 | 945.0 |
| 20260504173832 | 20 | 37 | 0.0 | 0.0 | 0.00 | 0.00 | 0.00 | 32 | 945.0 |
| 20260504173621 | 20 | 37 | 0.0 | 0.0 | 0.00 | 0.00 | 0.00 | 33 | 945.0 |
| 20260504173418 | 20 | 37 | 1.6 | 6.4 | 0.00 | 0.00 | 0.00 | 32 | 945.0 |
| 20260504173212 | 20 | 64 | 3.2 | 6.4 | 0.00 | 0.00 | 0.00 | 32 | 945.0 |
| 20260504173010 | 20 | 23 | 0.0 | 6.4 | 0.00 | 0.00 | 0.00 | 33 | 945.0 |
| 20260504172805 | 20 | 23 | 0.0 | 6.4 | 0.00 | 0.00 | 0.00 | 33 | 945.0 |
| 20260504172556 | 19 | 23 | 4.8 | 6.4 | 0.00 | 0.00 | 0.00 | 33 | 945.0 |
| 20260504172356 | 20 | 58 | 0.0 | 4.8 | 0.00 | 0.00 | 0.00 | 33 | 945.0 |
| 20260504171825 | 19 | 56 | 4.8 | 4.8 | 0.00 | 0.00 | 0.00 | 33 | 945.0 |
| 20260504171308 | 19 | 49 | 0.0 | 0.0 | 0.00 | 0.00 | 0.00 | 34 | 945.0 |
| 20260504171057 | 19 | 322 | 0.0 | 4.8 | 0.00 | 0.00 | 0.00 | 34 | 945.0 |
| 20260504170850 | 18 | 322 | 0.0 | 4.8 | 0.00 | 0.00 | 0.00 | 34 | 945.0 |
| 20260504170649 | 18 | 0 | 0.0 | 4.8 | 0.00 | 0.00 | 0.00 | 34 | 945.0 |
| 20260504170443 | 18 | 37 | 0.0 | 4.8 | 0.00 | 0.00 | 0.00 | 34 | 945.0 |
| 20260504170241 | 18 | 37 | 3.2 | 4.8 | 0.00 | 0.00 | 0.00 | 34 | 945.0 |
| 20260504160420 | 15 | 86 | 0.0 | 4.8 | 0.00 | 0.00 | 0.00 | 45 | 944.0 |
| 20260504160218 | 15 | 86 | 0.0 | 4.8 | 0.00 | 0.00 | 0.00 | 46 | 944.0 |
| 20260504150808 | 11 | 220 | 0.0 | 0.0 | 0.00 | 0.00 | 0.00 | 61 | 945.0 |
| 20260504150244 | 11 | 220 | 0.0 | 0.0 | 0.00 | 0.00 | 0.00 | 62 | 945.0 |
| 20260504141036 | 9 | 220 | 0.0 | 0.0 | 0.00 | 0.00 | 0.00 | 73 | 945.0 |
| 20260504140506 | 9 | 220 | 0.0 | 0.0 | 0.00 | 0.00 | 0.00 | 74 | 945.0 |
| 20260504140257 | 9 | 220 | 0.0 | 0.0 | 0.00 | 0.00 | 0.00 | 74 | 945.0 |
| 20260504130813 | 8 | 220 | 0.0 | 0.0 | 0.00 | 0.00 | 0.00 | 70 | 944.0 |
| 20260504130613 | 8 | 220 | 0.0 | 0.0 | 0.00 | 0.00 | 0.00 | 70 | 944.0 |
| 20260504120315 | 8 | 220 | 0.0 | 0.0 | 0.00 | 0.00 | 0.00 | 66 | 944.0 |
| 20260504120112 | 8 | 220 | 0.0 | 0.0 | 0.00 | 0.00 | 0.00 | 66 | 944.0 |
| 20260504110131 | 9 | 220 | 0.0 | 0.0 | 0.00 | 0.00 | 0.00 | 64 | 944.0 |
| 20260504100525 | 11 | 220 | 0.0 | 0.0 | 0.00 | 0.00 | 0.00 | 58 | 944.0 |
| 20260504081821 | 12 | 220 | 0.0 | 0.0 | 0.00 | 0.00 | 0.00 | 48 | 944.0 |
| 20260504081619 | 12 | 220 | 0.0 | 0.0 | 0.00 | 0.00 | 0.00 | 48 | 944.0 |
| 20260504081416 | 12 | 220 | 0.0 | 0.0 | 0.00 | 0.00 | 0.00 | 49 | 944.0 |
| 20260504081207 | 13 | 220 | 0.0 | 0.0 | 0.00 | 0.00 | 0.00 | 47 | 944.0 |
| 20260504080959 | 13 | 220 | 0.0 | 0.0 | 0.00 | 0.00 | 0.00 | 47 | 944.0 |
| 20260504080756 | 13 | 220 | 0.0 | 0.0 | 0.00 | 0.00 | 0.00 | 47 | 944.0 |
| 20260504080557 | 13 | 220 | 0.0 | 0.0 | 0.00 | 0.00 | 0.00 | 47 | 944.0 |
| 20260504060211 | 15 | 220 | 0.0 | 0.0 | 0.00 | 0.00 | 0.00 | 36 | 944.0 |
| 20260504050720 | 16 | 220 | 0.0 | 0.0 | 0.00 | 0.00 | 0.00 | 35 | 944.0 |
| 20260504050516 | 16 | 220 | 0.0 | 0.0 | 0.00 | 0.00 | 0.00 | 35 | 944.0 |
| 20260504045953 | 16 | 220 | 0.0 | 0.0 | 0.00 | 0.00 | 0.00 | 35 | 944.0 |
| 20260504045743 | 16 | 220 | 0.0 | 0.0 | 0.00 | 0.00 | 0.00 | 35 | 944.0 |
| 20260504045540 | 16 | 220 | 0.0 | 0.0 | 0.00 | 0.00 | 0.00 | 35 | 944.0 |
| 20260504044658 | 16 | 220 | 0.0 | 4.8 | 0.00 | 0.00 | 0.00 | 36 | 944.0 |
| 20260504044450 | 16 | 220 | 1.6 | 4.8 | 0.00 | 0.00 | 0.00 | 36 | 944.0 |
| 20260504044241 | 16 | 221 | 3.2 | 4.8 | 0.00 | 0.00 | 0.00 | 36 | 944.0 |
| 20260504044040 | 16 | 221 | 3.2 | 4.8 | 0.00 | 0.00 | 0.00 | 36 | 944.0 |
| 20260504043836 | 16 | 218 | 1.6 | 4.8 | 0.00 | 0.00 | 0.00 | 35 | 944.0 |
| 20260504043630 | 16 | 218 | 1.6 | 4.8 | 0.00 | 0.00 | 0.00 | 35 | 944.0 |
| 20260504043422 | 17 | 218 | 1.6 | 4.8 | 0.00 | 0.00 | 0.00 | 35 | 944.0 |
| 20260504043216 | 17 | 218 | 3.2 | 4.8 | 0.00 | 0.00 | 0.00 | 35 | 944.0 |
| 20260504042328 | 17 | 225 | 1.6 | 4.8 | 0.00 | 0.00 | 0.00 | 35 | 944.0 |
| 20260504042122 | 17 | 223 | 3.2 | 4.8 | 0.00 | 0.00 | 0.00 | 35 | 944.0 |
| 20260504041922 | 17 | 222 | 3.2 | 4.8 | 0.00 | 0.00 | 0.00 | 35 | 944.0 |
| 20260504041718 | 17 | 226 | 3.2 | 4.8 | 0.00 | 0.00 | 0.00 | 35 | 944.0 |
| 20260504041518 | 17 | 225 | 4.8 | 4.8 | 0.00 | 0.00 | 0.00 | 35 | 944.0 |
| 20260504041314 | 17 | 227 | 3.2 | 4.8 | 0.00 | 0.00 | 0.00 | 34 | 944.0 |
| 20260504041112 | 17 | 229 | 4.8 | 4.8 | 0.00 | 0.00 | 0.00 | 35 | 944.0 |
| 20260504040912 | 17 | 226 | 4.8 | 4.8 | 0.00 | 0.00 | 0.00 | 35 | 944.0 |
| 20260504040709 | 17 | 224 | 4.8 | 4.8 | 0.00 | 0.00 | 0.00 | 34 | 944.0 |
| 20260504040508 | 17 | 232 | 3.2 | 4.8 | 0.00 | 0.00 | 0.00 | 34 | 944.0 |
| 20260504040301 | 17 | 219 | 4.8 | 4.8 | 0.00 | 0.00 | 0.00 | 34 | 944.0 |
| 20260504035730 | 17 | 225 | 1.6 | 4.8 | 0.00 | 0.00 | 0.00 | 33 | 944.0 |
| 20260504035527 | 17 | 232 | 1.6 | 4.8 | 0.00 | 0.00 | 0.00 | 33 | 944.0 |
| 20260504035327 | 17 | 234 | 0.0 | 0.0 | 0.00 | 0.00 | 0.00 | 34 | 944.0 |
| 20260504035121 | 17 | 234 | 0.0 | 0.0 | 0.00 | 0.00 | 0.00 | 33 | 944.0 |
| 20260504034913 | 17 | 229 | 0.0 | 0.0 | 0.00 | 0.00 | 0.00 | 33 | 944.0 |
| 20260504034344 | 17 | 229 | 1.6 | 4.8 | 0.00 | 0.00 | 0.00 | 33 | 944.0 |
| 20260504034145 | 17 | 231 | 1.6 | 4.8 | 0.00 | 0.00 | 0.00 | 33 | 944.0 |
| 20260504033935 | 17 | 229 | 3.2 | 4.8 | 0.00 | 0.00 | 0.00 | 33 | 944.0 |
| 20260504033409 | 18 | 225 | 1.6 | 4.8 | 0.00 | 0.00 | 0.00 | 33 | 944.0 |
| 20260504032532 | 18 | 227 | 3.2 | 4.8 | 0.00 | 0.00 | 0.00 | 33 | 944.0 |
| 20260504032323 | 18 | 221 | 3.2 | 4.8 | 0.00 | 0.00 | 0.00 | 33 | 944.0 |
| 20260504031757 | 18 | 231 | 1.6 | 4.8 | 0.00 | 0.00 | 0.00 | 33 | 944.0 |
| 20260504031549 | 18 | 233 | 1.6 | 4.8 | 0.00 | 0.00 | 0.00 | 33 | 944.0 |
| 20260504030712 | 18 | 225 | 3.2 | 6.4 | 0.00 | 0.00 | 0.00 | 32 | 944.0 |
| 20260504030502 | 18 | 230 | 3.2 | 6.4 | 0.00 | 0.00 | 0.00 | 32 | 944.0 |
| 20260504025925 | 19 | 218 | 1.6 | 6.4 | 0.00 | 0.00 | 0.00 | 32 | 944.0 |
| 20260504025719 | 19 | 218 | 4.8 | 6.4 | 0.00 | 0.00 | 0.00 | 32 | 944.0 |
| 20260504025155 | 19 | 245 | 3.2 | 6.4 | 0.00 | 0.00 | 0.00 | 32 | 944.0 |
| 20260504024951 | 19 | 220 | 4.8 | 4.8 | 0.00 | 0.00 | 0.00 | 31 | 944.0 |
| 20260504024746 | 19 | 219 | 4.8 | 4.8 | 0.00 | 0.00 | 0.00 | 31 | 944.0 |
| 20260504024543 | 19 | 223 | 3.2 | 4.8 | 0.00 | 0.00 | 0.00 | 31 | 944.0 |
| 20260504024335 | 19 | 223 | 4.8 | 4.8 | 0.00 | 0.00 | 0.00 | 31 | 944.0 |
| 20260504024132 | 19 | 228 | 3.2 | 4.8 | 0.00 | 0.00 | 0.00 | 30 | 944.0 |
| 20260504023926 | 20 | 230 | 3.2 | 4.8 | 0.00 | 0.00 | 0.00 | 30 | 944.0 |
| 20260504023725 | 20 | 230 | 1.6 | 4.8 | 0.00 | 0.00 | 0.00 | 30 | 944.0 |
| 20260504023523 | 20 | 226 | 4.8 | 4.8 | 0.00 | 0.00 | 0.00 | 29 | 944.0 |
| 20260504023314 | 20 | 232 | 0.0 | 0.0 | 0.00 | 0.00 | 0.00 | 28 | 944.0 |
| 20260504023103 | 20 | 227 | 0.0 | 4.8 | 0.00 | 0.00 | 0.00 | 28 | 944.0 |
| 20260504022901 | 20 | 227 | 1.6 | 4.8 | 0.00 | 0.00 | 0.00 | 28 | 944.0 |
| 20260504022656 | 20 | 227 | 3.2 | 4.8 | 0.00 | 0.00 | 0.00 | 27 | 944.0 |
| 20260504022450 | 20 | 226 | 1.6 | 4.8 | 0.00 | 0.00 | 0.00 | 27 | 944.0 |
| 20260504022240 | 20 | 227 | 0.0 | 0.0 | 0.00 | 0.00 | 0.00 | 27 | 944.0 |
| 20260504022037 | 20 | 227 | 0.0 | 0.0 | 0.00 | 0.00 | 0.00 | 26 | 944.0 |
| 20260504021837 | 20 | 227 | 0.0 | 0.0 | 0.00 | 0.00 | 0.00 | 26 | 944.0 |
| 20260504021636 | 20 | 227 | 0.0 | 0.0 | 0.00 | 0.00 | 0.00 | 27 | 944.0 |
| 20260504021426 | 21 | 227 | 0.0 | 0.0 | 0.00 | 0.00 | 0.00 | 26 | 944.0 |
| 20260504020906 | 21 | 226 | 0.0 | 0.0 | 0.00 | 0.00 | 0.00 | 25 | 944.0 |
| 20260504020338 | 21 | 227 | 0.0 | 0.0 | 0.00 | 0.00 | 0.00 | 25 | 944.0 |
| 20260504015816 | 22 | 227 | 1.6 | 4.8 | 0.00 | 0.00 | 0.00 | 24 | 944.0 |
| 20260504015612 | 22 | 229 | 0.0 | 4.8 | 0.00 | 0.00 | 0.00 | 23 | 944.0 |
| 20260504015409 | 22 | 302 | 0.0 | 0.0 | 0.00 | 0.00 | 0.00 | 24 | 944.0 |
| 20260504015200 | 22 | 240 | 0.0 | 0.0 | 0.00 | 0.00 | 0.00 | 24 | 944.0 |
| 20260504014956 | 22 | 241 | 0.0 | 0.0 | 0.00 | 0.00 | 0.00 | 24 | 944.0 |
| 20260504014750 | 22 | 240 | 0.0 | 0.0 | 0.00 | 0.00 | 0.00 | 24 | 944.0 |
| 20260504014548 | 22 | 243 | 0.0 | 3.2 | 0.00 | 0.00 | 0.00 | 23 | 944.0 |
| 20260504014340 | 22 | 9 | 0.0 | 0.0 | 0.00 | 0.00 | 0.00 | 24 | 944.0 |
| 20260504013456 | 23 | 234 | 0.0 | 0.0 | 0.00 | 0.00 | 0.00 | 23 | 945.0 |
| 20260504013245 | 23 | 234 | 0.0 | 4.8 | 0.00 | 0.00 | 0.00 | 23 | 945.0 |
| 20260504013040 | 23 | 234 | 4.8 | 4.8 | 0.00 | 0.00 | 0.00 | 23 | 945.0 |
| 20260504012835 | 23 | 276 | 0.0 | 0.0 | 0.00 | 0.00 | 0.00 | 23 | 945.0 |
| 20260504012630 | 23 | 276 | 0.0 | 0.0 | 0.00 | 0.00 | 0.00 | 22 | 945.0 |
| 20260504012421 | 23 | 276 | 0.0 | 4.8 | 0.00 | 0.00 | 0.00 | 22 | 945.0 |
| 20260504012218 | 24 | 282 | 0.0 | 0.0 | 0.00 | 0.00 | 0.00 | 22 | 945.0 |
| 20260504012014 | 24 | 244 | 0.0 | 4.8 | 0.00 | 0.00 | 0.00 | 21 | 945.0 |
| 20260504011809 | 24 | 217 | 3.2 | 4.8 | 0.00 | 0.00 | 0.00 | 22 | 945.0 |
| 20260504011559 | 24 | 339 | 0.0 | 3.2 | 0.00 | 0.00 | 0.00 | 21 | 945.0 |
| 20260504011034 | 24 | 309 | 0.0 | 0.0 | 0.00 | 0.00 | 0.00 | 21 | 945.0 |
| 20260504010828 | 24 | 309 | 0.0 | 0.0 | 0.00 | 0.00 | 0.00 | 22 | 945.0 |
| 20260504010619 | 24 | 309 | 1.6 | 4.8 | 0.00 | 0.00 | 0.00 | 22 | 945.0 |
| 20260504010419 | 24 | 357 | 0.0 | 4.8 | 0.00 | 0.00 | 0.00 | 21 | 945.0 |
| 20260504010220 | 25 | 275 | 0.0 | 0.0 | 0.00 | 0.00 | 0.00 | 21 | 945.0 |
| 20260504010020 | 25 | 275 | 0.0 | 4.8 | 0.00 | 0.00 | 0.00 | 21 | 945.0 |
| 20260504005821 | 25 | 275 | 0.0 | 4.8 | 0.00 | 0.00 | 0.00 | 21 | 945.0 |
| 20260504005618 | 25 | 337 | 0.0 | 0.0 | 0.00 | 0.00 | 0.00 | 20 | 945.0 |
| 20260504005414 | 25 | 182 | 0.0 | 4.8 | 0.00 | 0.00 | 0.00 | 20 | 945.0 |
| 20260504005214 | 25 | 183 | 1.6 | 4.8 | 0.00 | 0.00 | 0.00 | 20 | 945.0 |
| 20260504005014 | 25 | 165 | 0.0 | 4.8 | 0.00 | 0.00 | 0.00 | 20 | 945.0 |
| 20260504004812 | 25 | 166 | 0.0 | 4.8 | 0.00 | 0.00 | 0.00 | 20 | 945.0 |
| 20260504004605 | 25 | 198 | 0.0 | 1.6 | 0.00 | 0.00 | 0.00 | 20 | 945.0 |
| 20260504004403 | 25 | 322 | 0.0 | 4.8 | 0.00 | 0.00 | 0.00 | 20 | 945.0 |
| 20260504004159 | 26 | 322 | 0.0 | 0.0 | 0.00 | 0.00 | 0.00 | 21 | 945.0 |
| 20260504003949 | 26 | 322 | 0.0 | 9.7 | 0.00 | 0.00 | 0.00 | 20 | 945.0 |
| 20260504003429 | 26 | 39 | 3.2 | 4.8 | 0.00 | 0.00 | 0.00 | 20 | 945.0 |
| 20260504002904 | 27 | 330 | 0.0 | 4.8 | 0.00 | 0.00 | 0.00 | 20 | 945.0 |
| 20260504002701 | 27 | 275 | 3.2 | 4.8 | 0.00 | 0.00 | 0.00 | 19 | 945.0 |
| 20260504002452 | 27 | 345 | 0.0 | 4.8 | 0.00 | 0.00 | 0.00 | 19 | 945.0 |
| 20260504001614 | 28 | 60 | 0.0 | 6.4 | 0.00 | 0.00 | 0.00 | 19 | 945.0 |
| 20260504001414 | 29 | 163 | 3.2 | 6.4 | 0.00 | 0.00 | 0.00 | 19 | 945.0 |
| 20260504001209 | 29 | 173 | 1.6 | 6.4 | 0.00 | 0.00 | 0.00 | 19 | 945.0 |
| 20260504001007 | 30 | 142 | 0.0 | 0.0 | 0.00 | 0.00 | 0.00 | 18 | 945.0 |
| 20260504000807 | 30 | 143 | 0.0 | 0.0 | 0.00 | 0.00 | 0.00 | 18 | 945.0 |
| 20260504000559 | 30 | 143 | 0.0 | 0.0 | 0.00 | 0.00 | 0.00 | 18 | 945.0 |
| 20260504000354 | 30 | 153 | 0.0 | 0.0 | 0.00 | 0.00 | 0.00 | 18 | 945.0 |
| 20260504000144 | 30 | 156 | 0.0 | 0.0 | 0.00 | 0.00 | 0.00 | 18 | 945.0 |
| 20260503235938 | 29 | 226 | 0.0 | 6.4 | 0.00 | 0.00 | 0.00 | 18 | 945.0 |
| 20260503235731 | 29 | 253 | 4.8 | 6.4 | 0.00 | 0.00 | 0.00 | 18 | 945.0 |
| 20260503235531 | 30 | 300 | 0.0 | 3.2 | 0.00 | 0.00 | 0.00 | 18 | 945.0 |
| 20260503235325 | 29 | 345 | 0.0 | 6.4 | 0.00 | 0.00 | 0.00 | 19 | 946.0 |
| 20260503235125 | 29 | 345 | 1.6 | 6.4 | 0.00 | 0.00 | 0.00 | 18 | 946.0 |
| 20260503234918 | 29 | 295 | 1.6 | 6.4 | 0.00 | 0.00 | 0.00 | 18 | 946.0 |
| 20260503234716 | 29 | 336 | 1.6 | 4.8 | 0.00 | 0.00 | 0.00 | 18 | 946.0 |
| 20260503234516 | 29 | 41 | 0.0 | 0.0 | 0.00 | 0.00 | 0.00 | 19 | 946.0 |
| 20260503234314 | 29 | 41 | 3.2 | 4.8 | 0.00 | 0.00 | 0.00 | 18 | 946.0 |
| 20260503234109 | 30 | 324 | 0.0 | 9.7 | 0.00 | 0.00 | 0.00 | 18 | 946.0 |
| 20260503233900 | 30 | 114 | 1.6 | 9.7 | 0.00 | 0.00 | 0.00 | 18 | 946.0 |
| 20260503233652 | 30 | 124 | 3.2 | 9.7 | 0.00 | 0.00 | 0.00 | 18 | 946.0 |
| 20260503233452 | 30 | 165 | 0.0 | 9.7 | 0.00 | 0.00 | 0.00 | 19 | 946.0 |
| 20260503233242 | 29 | 279 | 0.0 | 9.7 | 0.00 | 0.00 | 0.00 | 19 | 946.0 |
| 20260503232717 | 29 | 167 | 0.0 | 9.7 | 0.00 | 0.00 | 0.00 | 18 | 946.0 |
| 20260503232143 | 28 | 120 | 1.6 | 8.0 | 0.00 | 0.00 | 0.00 | 19 | 946.0 |
| 20260503231943 | 28 | 130 | 0.0 | 8.0 | 0.00 | 0.00 | 0.00 | 19 | 946.0 |
| 20260503231740 | 28 | 206 | 4.8 | 6.4 | 0.00 | 0.00 | 0.00 | 19 | 946.0 |
| 20260503231533 | 28 | 223 | 4.8 | 6.4 | 0.00 | 0.00 | 0.00 | 19 | 946.0 |
| 20260503231327 | 28 | 290 | 0.0 | 6.4 | 0.00 | 0.00 | 0.00 | 19 | 946.0 |
| 20260503231128 | 28 | 252 | 0.0 | 6.4 | 0.00 | 0.00 | 0.00 | 19 | 946.0 |
| 20260503230921 | 28 | 287 | 6.4 | 6.4 | 0.00 | 0.00 | 0.00 | 19 | 946.0 |
| 20260503230717 | 27 | 64 | 0.0 | 4.8 | 0.00 | 0.00 | 0.00 | 20 | 946.0 |
| 20260503230154 | 27 | 175 | 4.8 | 4.8 | 0.00 | 0.00 | 0.00 | 20 | 946.0 |
| 20260503225628 | 26 | 229 | 4.8 | 8.0 | 0.00 | 0.00 | 0.00 | 20 | 946.0 |
| 20260503225425 | 26 | 248 | 0.0 | 8.0 | 0.00 | 0.00 | 0.00 | 20 | 946.0 |
| 20260503225219 | 26 | 264 | 0.0 | 8.0 | 0.00 | 0.00 | 0.00 | 20 | 946.0 |
| 20260503225018 | 26 | 140 | 1.6 | 8.0 | 0.00 | 0.00 | 0.00 | 20 | 946.0 |
| 20260503224815 | 26 | 128 | 1.6 | 4.8 | 0.00 | 0.00 | 0.00 | 21 | 946.0 |
| 20260503224605 | 26 | 2 | 1.6 | 4.8 | 0.00 | 0.00 | 0.00 | 21 | 946.0 |
| 20260503224359 | 26 | 337 | 0.0 | 0.0 | 0.00 | 0.00 | 0.00 | 20 | 946.0 |
| 20260503224159 | 27 | 337 | 0.0 | 0.0 | 0.00 | 0.00 | 0.00 | 20 | 946.0 |
| 20260503223956 | 27 | 337 | 0.0 | 4.8 | 0.00 | 0.00 | 0.00 | 20 | 946.0 |
| 20260503223746 | 27 | 337 | 4.8 | 4.8 | 0.00 | 0.00 | 0.00 | 20 | 946.0 |
| 20260503223542 | 27 | 69 | 0.0 | 6.4 | 0.00 | 0.00 | 0.00 | 20 | 946.0 |
| 20260503223336 | 27 | 68 | 1.6 | 6.4 | 0.00 | 0.00 | 0.00 | 20 | 946.0 |
| 20260503223128 | 27 | 158 | 3.2 | 11.3 | 0.00 | 0.00 | 0.00 | 20 | 946.0 |
| 20260503222918 | 26 | 158 | 0.0 | 11.3 | 0.00 | 0.00 | 0.00 | 20 | 946.0 |
| 20260503222719 | 26 | 158 | 4.8 | 11.3 | 0.00 | 0.00 | 0.00 | 20 | 946.0 |
| 20260503222510 | 26 | 263 | 1.6 | 11.3 | 0.00 | 0.00 | 0.00 | 20 | 946.0 |
| 20260503222304 | 26 | 34 | 6.4 | 11.3 | 0.00 | 0.00 | 0.00 | 20 | 946.0 |
| 20260503221742 | 26 | 282 | 1.6 | 9.7 | 0.00 | 0.00 | 0.00 | 20 | 946.0 |
| 20260503221543 | 26 | 343 | 4.8 | 9.7 | 0.00 | 0.00 | 0.00 | 20 | 946.0 |
| 20260503221342 | 26 | 53 | 1.6 | 8.0 | 0.00 | 0.00 | 0.00 | 20 | 946.0 |
| 20260503221133 | 26 | 54 | 4.8 | 8.0 | 0.00 | 0.00 | 0.00 | 20 | 946.0 |
| 20260503220932 | 26 | 52 | 0.0 | 8.0 | 0.00 | 0.00 | 0.00 | 20 | 947.0 |
| 20260503220726 | 26 | 28 | 6.4 | 8.0 | 0.00 | 0.00 | 0.00 | 20 | 947.0 |
| 20260503215853 | 26 | 48 | 0.0 | 4.8 | 0.00 | 0.00 | 0.00 | 20 | 947.0 |
| 20260503215648 | 26 | 48 | 4.8 | 4.8 | 0.00 | 0.00 | 0.00 | 20 | 947.0 |
| 20260503215440 | 26 | 58 | 0.0 | 0.0 | 0.00 | 0.00 | 0.00 | 21 | 947.0 |
| 20260503215232 | 26 | 58 | 0.0 | 0.0 | 0.00 | 0.00 | 0.00 | 20 | 947.0 |
| 20260503215027 | 26 | 58 | 0.0 | 0.0 | 0.00 | 0.00 | 0.00 | 20 | 947.0 |
| 20260503214821 | 26 | 58 | 0.0 | 0.0 | 0.00 | 0.00 | 0.00 | 20 | 947.0 |
| 20260503214622 | 26 | 58 | 0.0 | 0.0 | 0.00 | 0.00 | 0.00 | 20 | 947.0 |
| 20260503214419 | 26 | 58 | 3.2 | 8.0 | 0.00 | 0.00 | 0.00 | 20 | 947.0 |
| 20260503214217 | 26 | 56 | 4.8 | 8.0 | 0.00 | 0.00 | 0.00 | 20 | 947.0 |
| 20260503214013 | 26 | 30 | 3.2 | 8.0 | 0.00 | 0.00 | 0.00 | 20 | 947.0 |
| 20260503213811 | 26 | 173 | 4.8 | 8.0 | 0.00 | 0.00 | 0.00 | 20 | 947.0 |
| 20260503213602 | 26 | 336 | 0.0 | 4.8 | 0.00 | 0.00 | 0.00 | 20 | 947.0 |
| 20260503213359 | 26 | 336 | 1.6 | 4.8 | 0.00 | 0.00 | 0.00 | 20 | 947.0 |
| 20260503213150 | 26 | 100 | 3.2 | 4.8 | 0.00 | 0.00 | 0.00 | 20 | 947.0 |
| 20260503212619 | 26 | 308 | 1.6 | 8.0 | 0.00 | 0.00 | 0.00 | 21 | 947.0 |
| 20260503212410 | 26 | 328 | 3.2 | 8.0 | 0.00 | 0.00 | 0.00 | 20 | 947.0 |
| 20260503212208 | 26 | 169 | 1.6 | 8.0 | 0.00 | 0.00 | 0.00 | 21 | 947.0 |
| 20260503212001 | 26 | 161 | 1.6 | 8.0 | 0.00 | 0.00 | 0.00 | 20 | 947.0 |
| 20260503211755 | 26 | 287 | 4.8 | 8.0 | 0.00 | 0.00 | 0.00 | 21 | 947.0 |
| 20260503211555 | 26 | 337 | 3.2 | 6.4 | 0.00 | 0.00 | 0.00 | 20 | 947.0 |
| 20260503211347 | 26 | 326 | 4.8 | 6.4 | 0.00 | 0.00 | 0.00 | 20 | 947.0 |
| 20260503211139 | 26 | 340 | 4.8 | 6.4 | 0.00 | 0.00 | 0.00 | 20 | 947.0 |
| 20260503210935 | 27 | 281 | 3.2 | 6.4 | 0.00 | 0.00 | 0.00 | 20 | 948.0 |
| 20260503210729 | 27 | 207 | 3.2 | 6.4 | 0.00 | 0.00 | 0.00 | 20 | 948.0 |
| 20260503210522 | 27 | 206 | 3.2 | 6.4 | 0.00 | 0.00 | 0.00 | 20 | 948.0 |
| 20260503210322 | 26 | 212 | 1.6 | 6.4 | 0.00 | 0.00 | 0.00 | 21 | 948.0 |
| 20260503210118 | 26 | 45 | 0.0 | 0.0 | 0.00 | 0.00 | 0.00 | 21 | 948.0 |
| 20260503205916 | 26 | 46 | 0.0 | 0.0 | 0.00 | 0.00 | 0.00 | 21 | 948.0 |
| 20260503205716 | 26 | 46 | 0.0 | 0.0 | 0.00 | 0.00 | 0.00 | 21 | 948.0 |
| 20260503205516 | 26 | 46 | 1.6 | 8.0 | 0.00 | 0.00 | 0.00 | 21 | 948.0 |
| 20260503205308 | 26 | 46 | 6.4 | 8.0 | 0.00 | 0.00 | 0.00 | 21 | 948.0 |
| 20260503204752 | 26 | 44 | 0.0 | 9.7 | 0.00 | 0.00 | 0.00 | 21 | 948.0 |
| 20260503204543 | 26 | 146 | 4.8 | 9.7 | 0.00 | 0.00 | 0.00 | 21 | 948.0 |
| 20260503204336 | 25 | 162 | 6.4 | 9.7 | 0.00 | 0.00 | 0.00 | 22 | 948.0 |
| 20260503204131 | 25 | 194 | 1.6 | 9.7 | 0.00 | 0.00 | 0.00 | 21 | 948.0 |
| 20260503203932 | 25 | 64 | 0.0 | 9.7 | 0.00 | 0.00 | 0.00 | 21 | 948.0 |
| 20260503203722 | 25 | 330 | 0.0 | 9.7 | 0.00 | 0.00 | 0.00 | 22 | 948.0 |
| 20260503203517 | 25 | 334 | 0.0 | 9.7 | 0.00 | 0.00 | 0.00 | 21 | 948.0 |
| 20260503203315 | 25 | 333 | 1.6 | 9.7 | 0.00 | 0.00 | 0.00 | 21 | 948.0 |
| 20260503203106 | 26 | 353 | 4.8 | 9.7 | 0.00 | 0.00 | 0.00 | 21 | 948.0 |
| 20260503202856 | 26 | 22 | 3.2 | 6.4 | 0.00 | 0.00 | 0.00 | 21 | 948.0 |
| 20260503202646 | 26 | 316 | 0.0 | 4.8 | 0.00 | 0.00 | 0.00 | 22 | 948.0 |
| 20260503202439 | 25 | 2 | 0.0 | 1.6 | 0.00 | 0.00 | 0.00 | 22 | 948.0 |
| 20260503202238 | 25 | 289 | 0.0 | 8.0 | 0.00 | 0.00 | 0.00 | 22 | 948.0 |